Time;durP1;ratioP1;P1;durP2;ratioP2;P2;SDS_P1;SDS_P2;PMS_P1;PMS_P2;Temp;Humidity;BMP_temperature;BMP_pressure;BME280_temperature;BME280_humidity;BME280_pressure;Samples;Min_cycle;Max_cycle;Signal;HPM_P1;HPM_P2
2022/02/10 00:21:31;;;;;;;811.92;458.40;;;;;;;;;;4941761;28;20063;-84
2022/02/10 00:34:58;;;;;;;809.05;449.33;;;;;;;;;;4949985;28;20131;-83
2022/02/10 00:37:35;;;;;;;811.03;454.98;;;;;;;;;;4959011;28;20122;-83
2022/02/10 00:40:12;;;;;;;811.97;455.40;;;;;;;;;;4970685;28;20361;-84
2022/02/10 00:42:39;;;;;;;815.03;460.38;;;;;;;;;;4948387;28;20028;-85
2022/02/10 00:45:05;;;;;;;813.85;468.88;;;;;;;;;;4944276;28;20054;-83
2022/02/10 00:47:45;;;;;;;811.83;458.63;;;;;;;;;;4943260;28;20032;-84
2022/02/10 00:50:11;;;;;;;867.22;457.92;;;;;;;;;;4938335;28;20442;-84
2022/02/10 00:52:41;;;;;;;814.25;455.90;;;;;;;;;;4955446;28;20044;-83
2022/02/10 00:55:08;;;;;;;812.38;454.13;;;;;;;;;;4946388;28;20716;-84
2022/02/10 00:57:34;;;;;;;809.80;455.42;;;;;;;;;;4944011;28;20038;-84
2022/02/10 01:00:22;;;;;;;812.30;456.52;;;;;;;;;;4948255;28;20035;-84
2022/02/10 01:13:28;;;;;;;814.88;457.00;;;;;;;;;;4964529;28;20083;-84
2022/02/10 01:32:02;;;;;;;811.78;455.27;;;;;;;;;;4962308;28;20122;-84
2022/02/10 01:34:30;;;;;;;818.03;467.48;;;;;;;;;;4970494;28;20463;-84
2022/02/10 01:36:56;;;;;;;816.97;460.38;;;;;;;;;;4954024;28;20042;-84
2022/02/10 01:39:25;;;;;;;810.08;453.63;;;;;;;;;;4945713;28;20502;-84
2022/02/10 02:03:39;;;;;;;818.00;463.95;;;;;;;;;;4957267;28;21434;-84
2022/02/10 02:06:11;;;;;;;813.13;460.25;;;;;;;;;;4966376;28;20538;-84
2022/02/10 02:08:40;;;;;;;816.20;460.73;;;;;;;;;;4961192;28;20130;-84
2022/02/10 02:11:06;;;;;;;819.03;473.65;;;;;;;;;;4947256;28;20031;-84
2022/02/10 02:13:32;;;;;;;819.47;473.80;;;;;;;;;;4977753;28;20052;-84
2022/02/10 02:15:58;;;;;;;815.17;462.55;;;;;;;;;;4950696;28;20033;-84
2022/02/10 02:18:25;;;;;;;819.78;478.95;;;;;;;;;;4946623;28;20039;-84
2022/02/10 02:20:52;;;;;;;815.88;459.65;;;;;;;;;;5021513;28;20036;-84
2022/02/10 02:23:19;;;;;;;819.00;471.67;;;;;;;;;;4960704;28;20135;-83
2022/02/10 02:25:49;;;;;;;817.70;469.40;;;;;;;;;;4970224;28;20042;-84
2022/02/10 02:28:15;;;;;;;816.90;464.23;;;;;;;;;;4946691;28;20027;-84
2022/02/10 02:30:49;;;;;;;820.13;476.70;;;;;;;;;;4947334;28;20041;-84
2022/02/10 03:06:43;;;;;;;812.25;456.65;;;;;;;;;;4940134;28;20296;-84
2022/02/10 03:09:20;;;;;;;816.60;464.95;;;;;;;;;;4944032;28;20535;-84
2022/02/10 03:11:46;;;;;;;813.97;459.85;;;;;;;;;;4931680;28;20089;-84
2022/02/10 03:14:20;;;;;;;817.78;462.98;;;;;;;;;;4955348;28;20066;-84
2022/02/10 04:01:05;;;;;;;813.08;457.25;;;;;;;;;;4949635;28;20059;-84
2022/02/10 04:13:52;;;;;;;811.22;449.75;;;;;;;;;;4943811;28;20065;-83
2022/02/10 04:16:29;;;;;;;811.88;454.58;;;;;;;;;;4942211;28;20056;-84
2022/02/10 04:41:08;;;;;;;816.38;466.10;;;;;;;;;;4947281;28;20518;-84
2022/02/10 04:43:26;;;;;;;814.40;462.00;;;;;;;;;;4944383;28;20039;-84
2022/02/10 04:59:43;;;;;;;813.67;459.33;;;;;;;;;;4897074;28;20049;-85
2022/02/10 05:21:05;;;;;;;817.38;467.60;;;;;;;;;;4945895;28;20043;-83
2022/02/10 05:32:12;;;;;;;815.92;462.13;;;;;;;;;;4945062;28;20058;-83
2022/02/10 05:34:44;;;;;;;816.47;460.35;;;;;;;;;;4944398;28;20406;-82
2022/02/10 05:37:10;;;;;;;815.58;463.63;;;;;;;;;;4942062;28;20461;-81
2022/02/10 05:39:41;;;;;;;821.25;470.80;;;;;;;;;;4944637;28;20035;-82
2022/02/10 06:53:53;;;;;;;814.65;443.60;;;;;;;;;;4946182;28;20122;-82
2022/02/10 07:07:33;;;;;;;814.92;444.00;;;;;;;;;;4966540;28;20039;-82
2022/02/10 07:10:07;;;;;;;811.17;440.20;;;;;;;;;;4961161;28;20425;-82
2022/02/10 07:15:33;;;;;;;813.25;440.02;;;;;;;;;;4945477;28;20054;-82
2022/02/10 07:54:09;;;;;;;814.10;452.90;;;;;;;;;;4969840;28;20255;-81
2022/02/10 08:58:41;;;;;;;812.72;443.80;;;;;;;;;;4952691;28;20114;-82
2022/02/10 09:03:55;;;;;;;814.13;454.02;;;;;;;;;;4956004;28;20047;-82
2022/02/10 09:17:21;;;;;;;817.35;464.05;;;;;;;;;;4962249;28;20547;-82
2022/02/10 10:02:57;;;;;;;;;;;;;;;;;;4973394;28;20073;-81
2022/02/10 10:18:42;;;;;;;825.45;497.85;;;;;;;;;;4952700;28;20039;-82
2022/02/10 10:21:33;;;;;;;824.95;498.17;;;;;;;;;;4963106;28;20035;-82
2022/02/10 10:56:54;;;;;;;825.47;511.92;;;;;;;;;;4952625;28;20031;-82
2022/02/10 11:38:48;;;;;;;827.30;517.15;;;;;;;;;;4954310;28;20074;-80
2022/02/10 12:42:08;;;;;;;826.22;504.38;;;;;;;;;;4970430;28;20128;-81
2022/02/10 14:09:36;;;;;;;825.95;483.98;;;;;;;;;;4974876;28;20039;-82
2022/02/10 14:15:04;;;;;;;823.75;482.98;;;;;;;;;;4979220;28;20387;-81
2022/02/10 14:17:35;;;;;;;817.97;467.48;;;;;;;;;;4978201;28;20120;-82
2022/02/10 14:20:13;;;;;;;823.20;475.80;;;;;;;;;;4968598;28;20052;-81
2022/02/10 14:22:52;;;;;;;821.22;473.23;;;;;;;;;;4958708;28;20029;-81
2022/02/10 14:25:39;;;;;;;822.45;473.00;;;;;;;;;;4963257;28;20042;-80
2022/02/10 14:28:06;;;;;;;824.10;478.13;;;;;;;;;;4962396;28;20027;-82
2022/02/10 14:30:33;;;;;;;823.75;479.90;;;;;;;;;;4961687;28;20102;-81
2022/02/10 14:32:59;;;;;;;824.20;489.30;;;;;;;;;;4979639;28;20077;-82
2022/02/10 14:35:35;;;;;;;823.47;475.27;;;;;;;;;;4959281;28;20542;-82
2022/02/10 14:38:19;;;;;;;823.83;481.70;;;;;;;;;;4958315;28;20389;-81
2022/02/10 15:14:44;;;;;;;822.28;474.70;;;;;;;;;;4968473;28;20114;-84
2022/02/10 16:21:10;;;;;;;815.35;444.45;;;;;;;;;;4946450;28;20034;-82
2022/02/10 16:23:36;;;;;;;816.83;446.25;;;;;;;;;;4958431;28;20035;-81
2022/02/10 16:26:18;;;;;;;815.75;443.40;;;;;;;;;;4953368;28;20039;-83
2022/02/10 16:28:44;;;;;;;818.50;442.48;;;;;;;;;;4942279;28;20289;-81
2022/02/10 16:31:15;;;;;;;816.15;443.20;;;;;;;;;;4965160;28;20106;-80
2022/02/10 16:33:43;;;;;;;810.55;431.02;;;;;;;;;;4965795;28;20031;-81
2022/02/10 16:36:16;;;;;;;815.15;439.65;;;;;;;;;;4965512;28;20034;-80
2022/02/10 16:38:42;;;;;;;813.80;438.77;;;;;;;;;;4995185;28;20073;-81
2022/02/10 16:41:12;;;;;;;816.97;447.70;;;;;;;;;;4970550;28;20038;-82
2022/02/10 16:43:38;;;;;;;820.47;449.02;;;;;;;;;;4954221;28;20105;-81
2022/02/10 16:46:04;;;;;;;818.53;449.80;;;;;;;;;;4968639;28;20035;-82
2022/02/10 16:48:33;;;;;;;816.97;444.48;;;;;;;;;;4945405;28;20032;-83
2022/02/10 16:51:00;;;;;;;819.60;453.80;;;;;;;;;;4950974;28;20019;-82
2022/02/10 16:53:28;;;;;;;820.40;447.23;;;;;;;;;;4945644;28;20162;-82
2022/02/10 16:56:00;;;;;;;818.15;449.48;;;;;;;;;;4940641;28;20039;-82
2022/02/10 16:58:36;;;;;;;819.15;452.40;;;;;;;;;;4961420;28;20530;-81
2022/02/10 17:01:25;;;;;;;823.42;445.08;;;;;;;;;;4960667;28;20039;-81
2022/02/10 17:20:29;;;;;;;813.22;424.65;;;;;;;;;;4946056;28;20043;-81
2022/02/10 17:25:44;;;;;;;809.78;412.35;;;;;;;;;;4980301;28;20096;-82
2022/02/10 17:28:11;;;;;;;815.40;427.83;;;;;;;;;;4950204;28;20470;-81
2022/02/10 17:33:35;;;;;;;810.08;417.13;;;;;;;;;;4964137;28;20094;-80
2022/02/10 17:36:16;;;;;;;809.13;413.55;;;;;;;;;;4949972;28;20053;-82
2022/02/10 17:54:23;;;;;;;811.55;421.65;;;;;;;;;;4958853;28;20392;-82
2022/02/10 17:56:49;;;;;;;816.13;428.52;;;;;;;;;;4972015;28;20105;-81
2022/02/10 17:59:16;;;;;;;813.88;429.08;;;;;;;;;;4969837;28;20037;-82
2022/02/10 18:01:42;;;;;;;811.75;413.83;;;;;;;;;;4963082;28;20391;-82
2022/02/10 18:04:12;;;;;;;813.03;424.15;;;;;;;;;;4949838;28;20039;-82
2022/02/10 18:06:53;;;;;;;813.63;420.30;;;;;;;;;;4984677;28;20132;-83
2022/02/10 18:14:43;;;;;;;807.92;409.02;;;;;;;;;;4969135;28;20149;-82
2022/02/10 18:19:48;;;;;;;808.25;407.70;;;;;;;;;;4949242;28;20118;-82
2022/02/10 18:30:38;;;;;;;809.58;398.50;;;;;;;;;;4980605;28;20021;-81
2022/02/10 19:09:22;;;;;;;805.50;390.15;;;;;;;;;;4981470;28;20130;-83
2022/02/10 19:11:08;;;;;;;806.78;392.55;;;;;;;;;;4981409;28;20033;-82
2022/02/10 19:13:34;;;;;;;590.38;290.73;;;;;;;;;;4957167;28;20052;-82
2022/02/10 19:16:00;;;;;;;806.30;399.13;;;;;;;;;;4947697;28;20108;-81
2022/02/10 19:18:26;;;;;;;811.63;395.75;;;;;;;;;;4964243;28;20031;-83
2022/02/10 19:20:52;;;;;;;805.38;391.77;;;;;;;;;;4981066;28;20427;-83
2022/02/10 19:23:18;;;;;;;805.97;393.95;;;;;;;;;;4979069;28;20043;-82
2022/02/10 19:25:44;;;;;;;806.40;397.02;;;;;;;;;;4954449;28;20032;-82
2022/02/10 19:28:10;;;;;;;808.78;401.85;;;;;;;;;;4946677;28;20042;-82
2022/02/10 19:30:38;;;;;;;808.65;396.73;;;;;;;;;;4958219;28;20050;-83
2022/02/10 19:33:08;;;;;;;806.33;390.02;;;;;;;;;;4974930;28;20034;-83
2022/02/10 19:35:39;;;;;;;803.15;388.63;;;;;;;;;;4973814;28;20036;-82
2022/02/10 19:38:06;;;;;;;803.72;390.15;;;;;;;;;;4955592;28;20506;-83
2022/02/10 19:40:37;;;;;;;803.38;390.35;;;;;;;;;;4955896;28;20418;-83
2022/02/10 19:43:03;;;;;;;803.13;384.63;;;;;;;;;;4955356;28;20105;-80
2022/02/10 19:45:28;;;;;;;802.83;391.50;;;;;;;;;;4978733;28;20039;-83
2022/02/10 19:47:55;;;;;;;799.97;386.27;;;;;;;;;;4955246;28;20034;-83
2022/02/10 19:50:26;;;;;;;806.53;396.77;;;;;;;;;;4978368;28;20030;-84
2022/02/10 19:52:54;;;;;;;801.00;381.25;;;;;;;;;;4973686;28;20029;-83
2022/02/10 19:55:23;;;;;;;803.90;389.05;;;;;;;;;;4948817;28;20494;-83
2022/02/10 19:57:52;;;;;;;803.83;389.27;;;;;;;;;;4960488;28;20035;-83
2022/02/10 20:00:24;;;;;;;802.03;392.20;;;;;;;;;;4949393;28;20035;-82
2022/02/10 20:02:50;;;;;;;800.30;386.80;;;;;;;;;;4958390;28;20035;-82
2022/02/10 20:05:21;;;;;;;798.58;383.35;;;;;;;;;;4966373;28;20046;-82
2022/02/10 20:07:51;;;;;;;801.42;383.98;;;;;;;;;;4953252;28;20051;-83
2022/02/10 20:10:17;;;;;;;802.22;382.15;;;;;;;;;;4959212;28;20070;-82
2022/02/10 20:12:43;;;;;;;798.95;376.15;;;;;;;;;;4952232;28;20028;-83
2022/02/10 20:15:12;;;;;;;800.97;383.65;;;;;;;;;;4960378;28;20034;-82
2022/02/10 20:17:38;;;;;;;799.83;385.75;;;;;;;;;;4948882;28;20383;-83
2022/02/10 20:20:05;;;;;;;802.95;386.20;;;;;;;;;;4947118;28;20429;-83
2022/02/10 20:22:37;;;;;;;800.10;382.13;;;;;;;;;;4948911;28;20063;-82
2022/02/10 20:25:04;;;;;;;799.95;384.30;;;;;;;;;;4945072;28;20035;-84
2022/02/10 20:27:30;;;;;;;801.47;381.17;;;;;;;;;;4944220;28;20035;-81
2022/02/10 20:29:56;;;;;;;799.65;380.45;;;;;;;;;;4960975;28;20031;-84
2022/02/10 20:32:22;;;;;;;803.30;385.38;;;;;;;;;;4944259;28;20303;-83
2022/02/10 20:34:48;;;;;;;799.72;377.48;;;;;;;;;;4945410;28;20042;-83
2022/02/10 20:37:14;;;;;;;801.72;382.80;;;;;;;;;;4944373;28;20023;-83
2022/02/10 20:39:41;;;;;;;799.65;378.38;;;;;;;;;;4941857;28;20024;-83
2022/02/10 20:42:13;;;;;;;801.95;383.02;;;;;;;;;;4951323;28;20023;-83
2022/02/10 20:44:42;;;;;;;798.55;374.52;;;;;;;;;;4949549;28;20053;-83
2022/02/10 20:47:08;;;;;;;796.40;368.37;;;;;;;;;;4944936;28;20032;-83
2022/02/10 20:49:34;;;;;;;796.30;369.42;;;;;;;;;;4957736;28;20030;-82
2022/02/10 20:52:00;;;;;;;801.65;377.95;;;;;;;;;;4950678;28;20312;-82
2022/02/10 20:54:27;;;;;;;799.03;374.55;;;;;;;;;;4946100;28;20173;-83
2022/02/10 20:56:53;;;;;;;795.65;370.63;;;;;;;;;;4943878;28;20059;-82
2022/02/10 21:02:03;;;;;;;797.40;371.42;;;;;;;;;;4945863;28;20035;-82
2022/02/10 21:04:51;;;;;;;792.63;362.30;;;;;;;;;;4949926;28;20043;-83
2022/02/10 21:12:16;;;;;;;796.33;369.95;;;;;;;;;;4958472;28;20376;-82
2022/02/10 21:14:43;;;;;;;800.63;375.52;;;;;;;;;;4949840;28;20031;-83
2022/02/10 21:17:11;;;;;;;796.20;371.27;;;;;;;;;;4958396;28;20023;-82
2022/02/10 21:19:38;;;;;;;797.67;374.38;;;;;;;;;;4948982;28;20168;-81
2022/02/10 21:22:11;;;;;;;796.95;372.23;;;;;;;;;;4963479;28;20039;-81
2022/02/10 21:24:43;;;;;;;793.42;363.77;;;;;;;;;;4956148;28;20038;-82
2022/02/10 21:27:27;;;;;;;794.53;363.20;;;;;;;;;;4951820;28;20049;-83
2022/02/10 21:29:58;;;;;;;792.60;359.73;;;;;;;;;;4950856;28;20032;-82
2022/02/10 21:32:27;;;;;;;791.72;361.92;;;;;;;;;;4954495;28;20035;-82
2022/02/10 21:37:58;;;;;;;791.47;361.02;;;;;;;;;;4953863;28;20051;-82
2022/02/10 21:59:50;;;;;;;791.67;358.88;;;;;;;;;;4969062;28;20039;-82
2022/02/10 22:21:01;;;;;;;787.75;343.48;;;;;;;;;;4958389;28;20476;-82
2022/02/10 22:23:28;;;;;;;788.40;342.90;;;;;;;;;;4954964;28;20107;-82
2022/02/10 22:26:00;;;;;;;788.20;345.70;;;;;;;;;;4949597;28;20038;-81
2022/02/10 22:28:34;;;;;;;791.90;344.58;;;;;;;;;;4973909;28;20031;-82
2022/02/10 22:31:20;;;;;;;785.03;340.70;;;;;;;;;;4973933;28;20066;-83
2022/02/10 22:36:19;;;;;;;788.47;340.17;;;;;;;;;;4971742;28;20130;-82
2022/02/10 22:38:51;;;;;;;786.83;341.42;;;;;;;;;;4980284;28;20041;-81
2022/02/10 22:41:18;;;;;;;788.63;342.83;;;;;;;;;;4953023;28;20040;-83
2022/02/10 22:43:46;;;;;;;788.92;343.33;;;;;;;;;;4945908;28;20031;-82
2022/02/10 22:46:12;;;;;;;790.42;341.80;;;;;;;;;;4968144;28;20035;-82
2022/02/10 22:48:44;;;;;;;784.55;332.63;;;;;;;;;;4947144;28;20046;-82
2022/02/10 22:51:11;;;;;;;785.47;333.70;;;;;;;;;;4941299;28;20597;-82
2022/02/10 22:53:37;;;;;;;786.08;336.40;;;;;;;;;;4967596;28;20029;-82
2022/02/10 22:56:03;;;;;;;787.97;340.95;;;;;;;;;;4961113;28;20089;-83
2022/02/10 22:58:29;;;;;;;788.40;337.02;;;;;;;;;;4970024;28;20035;-83
2022/02/10 23:00:55;;;;;;;790.08;338.58;;;;;;;;;;4955152;28;20047;-82
2022/02/10 23:03:23;;;;;;;789.65;343.13;;;;;;;;;;4954919;28;20039;-83
2022/02/10 23:05:49;;;;;;;786.15;334.90;;;;;;;;;;4952065;28;20116;-83
2022/02/10 23:08:16;;;;;;;789.35;336.90;;;;;;;;;;4946318;28;20126;-82
2022/02/10 23:10:47;;;;;;;786.78;333.75;;;;;;;;;;4945840;28;20047;-82
2022/02/10 23:13:15;;;;;;;787.55;336.27;;;;;;;;;;4943176;28;20058;-82
2022/02/10 23:15:42;;;;;;;787.78;334.08;;;;;;;;;;4958689;28;20055;-82
2022/02/10 23:18:09;;;;;;;790.63;334.13;;;;;;;;;;4956568;28;20034;-81
2022/02/10 23:20:35;;;;;;;788.45;332.92;;;;;;;;;;4954383;28;20037;-83
2022/02/10 23:23:03;;;;;;;788.55;337.83;;;;;;;;;;4950754;28;20472;-82
2022/02/10 23:25:29;;;;;;;790.33;336.23;;;;;;;;;;4952265;28;20028;-81
2022/02/10 23:27:55;;;;;;;788.72;336.25;;;;;;;;;;4947675;28;20470;-82
2022/02/10 23:30:25;;;;;;;790.70;341.45;;;;;;;;;;4943074;28;20035;-81
2022/02/10 23:32:54;;;;;;;788.83;332.48;;;;;;;;;;4959939;28;20462;-82
2022/02/10 23:38:05;;;;;;;785.83;327.52;;;;;;;;;;4951839;28;20545;-82
2022/02/10 23:40:44;;;;;;;787.15;334.08;;;;;;;;;;4975568;28;20497;-82
2022/02/10 23:43:11;;;;;;;789.15;335.52;;;;;;;;;;4950260;28;20055;-82
2022/02/10 23:45:41;;;;;;;786.80;327.80;;;;;;;;;;4949034;28;20054;-81
2022/02/10 23:48:07;;;;;;;786.20;332.23;;;;;;;;;;4941419;28;20479;-82
2022/02/10 23:50:35;;;;;;;785.63;332.17;;;;;;;;;;4946451;28;20043;-82
2022/02/10 23:53:02;;;;;;;782.33;323.48;;;;;;;;;;4945749;28;20097;-81
2022/02/10 23:55:36;;;;;;;785.28;331.73;;;;;;;;;;4965803;28;20039;-82
